createdAt,value
2023-05-25T00:00:34.486Z,97950.00
2023-05-25T00:03:21.496Z,97948.00
2023-05-25T00:06:08.484Z,97944.22
2023-05-25T00:08:57.315Z,97935.03
2023-05-25T00:11:44.740Z,97942.88
2023-05-25T00:14:31.694Z,97944.34
2023-05-25T00:17:18.988Z,97947.47
2023-05-25T00:20:09.566Z,97947.63
2023-05-25T00:22:56.571Z,97949.63
2023-05-25T00:25:43.643Z,97946.44
2023-05-25T00:28:30.855Z,97951.81
2023-05-25T00:31:17.822Z,97942.97
2023-05-25T00:34:04.839Z,97943.53
2023-05-25T00:36:51.751Z,97943.75
2023-05-25T00:39:38.740Z,97940.06
2023-05-25T00:42:25.659Z,97942.84
2023-05-25T00:45:12.670Z,97945.72
2023-05-25T00:48:00.710Z,97940.34
2023-05-25T00:50:47.895Z,97940.81
2023-05-25T00:53:37.165Z,97943.50
2023-05-25T00:56:35.568Z,97937.53
2023-05-25T00:59:35.822Z,97939.53
2023-05-25T01:02:24.314Z,97939.00
2023-05-25T01:05:12.408Z,97939.56
2023-05-25T01:08:01.997Z,97947.53
2023-05-25T01:10:51.613Z,97938.03
2023-05-25T01:13:40.467Z,97939.63
2023-05-25T01:16:28.876Z,97944.00
2023-05-25T01:19:15.901Z,97944.56
2023-05-25T01:22:17.891Z,97958.69
2023-05-25T01:25:13.717Z,97973.75
2023-05-25T01:28:13.130Z,97971.72
2023-05-25T01:31:00.796Z,97968.44
2023-05-25T01:33:50.999Z,97963.09
2023-05-25T01:36:37.926Z,97956.56
2023-05-25T01:39:24.776Z,97959.22
2023-05-25T01:42:11.727Z,97956.97
2023-05-25T01:44:59.807Z,97966.91
2023-05-25T01:48:01.456Z,97959.00
2023-05-25T01:51:04.971Z,97954.81
2023-05-25T01:54:00.388Z,97957.78
2023-05-25T01:56:50.040Z,97949.06
2023-05-25T01:59:38.553Z,97951.41
2023-05-25T02:02:26.339Z,97944.66
2023-05-25T02:05:13.766Z,97937.28
2023-05-25T02:08:00.971Z,97945.53
2023-05-25T02:10:47.860Z,97943.53
2023-05-25T02:13:34.850Z,97936.25
2023-05-25T02:16:21.869Z,97931.44
2023-05-25T02:19:08.818Z,97931.25
2023-05-25T02:21:55.807Z,97939.31
2023-05-25T02:24:42.653Z,97933.59
2023-05-25T02:27:29.548Z,97941.00
2023-05-25T02:30:16.484Z,97942.69
2023-05-25T02:33:03.537Z,97929.25
2023-05-25T02:35:50.410Z,97939.16
2023-05-25T02:38:37.257Z,97933.69
2023-05-25T02:41:28.894Z,97952.56
2023-05-25T02:44:15.760Z,97945.47
2023-05-25T02:47:02.796Z,97958.19
2023-05-25T02:49:49.831Z,97955.94
2023-05-25T02:52:36.907Z,97955.53
2023-05-25T02:55:26.177Z,97972.41
2023-05-25T02:58:13.081Z,97967.38
2023-05-25T03:01:00.292Z,97983.19
2023-05-25T03:03:52.130Z,97976.81
2023-05-25T03:06:39.150Z,97979.84
2023-05-25T03:09:26.017Z,97984.81
2023-05-25T03:12:12.914Z,97979.03
2023-05-25T03:14:59.806Z,97981.38
2023-05-25T03:17:46.835Z,97979.94
2023-05-25T03:20:34.415Z,97983.50
2023-05-25T03:23:21.679Z,97982.91
2023-05-25T03:26:08.713Z,97987.19
2023-05-25T03:28:55.684Z,97984.75
2023-05-25T03:31:42.591Z,97985.75
2023-05-25T03:34:30.066Z,97994.59
2023-05-25T03:37:17.275Z,97992.66
2023-05-25T03:40:04.937Z,97994.75
2023-05-25T03:42:51.912Z,97994.44
2023-05-25T03:45:38.830Z,98000.09
2023-05-25T03:48:25.951Z,97996.00
2023-05-25T03:51:12.844Z,97996.81
2023-05-25T03:53:59.695Z,98002.19
2023-05-25T03:56:46.577Z,97997.84
2023-05-25T03:59:33.427Z,97996.09
2023-05-25T04:02:20.337Z,98002.63
2023-05-25T04:05:07.651Z,98010.44
2023-05-25T04:07:54.597Z,97998.66
2023-05-25T04:10:41.520Z,97999.78
2023-05-25T04:13:28.375Z,98006.44
2023-05-25T04:16:15.828Z,98002.94
2023-05-25T04:19:02.924Z,98005.97
2023-05-25T04:21:49.789Z,98012.69
2023-05-25T04:24:36.807Z,98014.78
2023-05-25T04:27:23.694Z,98018.84
2023-05-25T04:30:11.225Z,98014.50
2023-05-25T04:33:02.728Z,98015.53
2023-05-25T04:35:50.681Z,98014.81
2023-05-25T04:38:38.040Z,98007.41
2023-05-25T04:41:25.960Z,98017.97
2023-05-25T04:44:13.956Z,98008.63
2023-05-25T04:47:01.438Z,98021.22
2023-05-25T04:49:48.378Z,98010.25
2023-05-25T04:52:35.787Z,98015.19
2023-05-25T04:55:22.633Z,97997.03
2023-05-25T04:58:09.570Z,98008.19
2023-05-25T05:00:56.593Z,98013.81
2023-05-25T05:03:43.541Z,98010.56
2023-05-25T05:06:32.233Z,98017.56
2023-05-25T05:09:19.139Z,98011.84
2023-05-25T05:12:08.123Z,98020.28
2023-05-25T05:14:56.338Z,98022.09
2023-05-25T05:17:43.310Z,98018.19
2023-05-25T05:20:30.232Z,98021.00
2023-05-25T05:23:17.092Z,98021.91
2023-05-25T05:26:05.088Z,98014.53
2023-05-25T05:28:52.660Z,98019.91
2023-05-25T05:31:39.686Z,98021.22
2023-05-25T05:34:26.818Z,98026.47
2023-05-25T05:37:13.727Z,98037.94
2023-05-25T05:40:00.722Z,98029.97
2023-05-25T05:42:47.647Z,98034.50
2023-05-25T05:45:34.489Z,98041.72
2023-05-25T05:48:21.345Z,98034.34
2023-05-25T05:51:08.248Z,98047.53
2023-05-25T05:53:55.541Z,98031.03
2023-05-25T05:56:42.394Z,98037.88
2023-05-25T05:59:29.272Z,98042.94
2023-05-25T06:02:16.266Z,98036.84
2023-05-25T06:05:03.305Z,98045.00
2023-05-25T06:07:50.218Z,98043.25
2023-05-25T06:10:38.143Z,98044.53
2023-05-25T06:13:25.001Z,98043.19
2023-05-25T06:16:12.552Z,98040.31
2023-05-25T06:18:59.525Z,98048.13
2023-05-25T06:21:46.426Z,98046.94
2023-05-25T06:24:33.328Z,98043.50
2023-05-25T06:27:20.262Z,98063.53
2023-05-25T06:30:07.940Z,98062.66
2023-05-25T06:32:54.835Z,98072.06
2023-05-25T06:35:42.132Z,98060.91
2023-05-25T06:38:29.365Z,98065.84
2023-05-25T06:41:16.268Z,98069.31
2023-05-25T06:44:03.142Z,98064.81
2023-05-25T06:46:50.038Z,98066.41
2023-05-25T06:49:37.229Z,98069.72
2023-05-25T06:52:24.247Z,98071.78
2023-05-25T06:55:11.368Z,98078.44
2023-05-25T06:57:58.660Z,98072.91
2023-05-25T07:00:46.827Z,98076.13
2023-05-25T07:03:38.578Z,98067.25
2023-05-25T07:06:25.786Z,98071.88
2023-05-25T07:09:13.600Z,98066.75
2023-05-25T07:12:01.197Z,98072.09
2023-05-25T07:14:48.404Z,98071.44
2023-05-25T07:17:36.610Z,98074.75
2023-05-25T07:20:24.334Z,98075.13
2023-05-25T07:23:11.952Z,98077.50
2023-05-25T07:25:58.799Z,98075.53
2023-05-25T07:28:45.781Z,98083.38
2023-05-25T07:31:32.775Z,98083.41
2023-05-25T07:34:20.707Z,98079.41
2023-05-25T07:37:07.626Z,98076.47
2023-05-25T07:39:54.588Z,98082.63
2023-05-25T07:42:41.488Z,98082.09
2023-05-25T07:45:28.421Z,98090.63
2023-05-25T07:48:15.569Z,98089.03
2023-05-25T07:51:02.477Z,98090.84
2023-05-25T07:53:49.556Z,98093.81
2023-05-25T07:56:36.476Z,98091.13
2023-05-25T07:59:23.358Z,98087.38
2023-05-25T08:02:10.301Z,98082.78
2023-05-25T08:04:57.523Z,98091.91
2023-05-25T08:07:45.557Z,98091.22
2023-05-25T08:10:32.592Z,98090.28
2023-05-25T08:13:19.603Z,98084.00
2023-05-25T08:16:06.664Z,98098.28
2023-05-25T08:18:53.618Z,98097.19
2023-05-25T08:21:40.509Z,98105.50
2023-05-25T08:24:27.385Z,98098.63
2023-05-25T08:27:14.287Z,98095.66
2023-05-25T08:30:01.669Z,98102.00
2023-05-25T08:32:48.649Z,98101.69
2023-05-25T08:35:39.320Z,98102.38
2023-05-25T08:38:26.403Z,98108.44
2023-05-25T08:41:13.455Z,98106.13
2023-05-25T08:44:06.230Z,98101.66
2023-05-25T08:46:56.813Z,98097.69
2023-05-25T08:49:45.464Z,98103.38
2023-05-25T08:52:34.288Z,98103.53
2023-05-25T08:55:23.761Z,98104.47
2023-05-25T08:58:17.563Z,98117.94
2023-05-25T09:01:08.426Z,98105.72
2023-05-25T09:03:57.279Z,98122.88
2023-05-25T09:06:51.388Z,98114.50
2023-05-25T09:09:49.349Z,98112.75
2023-05-25T09:12:37.158Z,98117.00
2023-05-25T09:15:24.311Z,98113.44
2023-05-25T09:18:13.034Z,98112.47
2023-05-25T09:21:02.094Z,98110.47
2023-05-25T09:23:50.252Z,98109.66
2023-05-25T09:26:37.318Z,98101.94
2023-05-25T09:29:24.198Z,98099.06
2023-05-25T09:32:11.495Z,98103.41
2023-05-25T09:35:25.295Z,98105.44
2023-05-25T09:38:15.529Z,98109.38
2023-05-25T09:41:03.592Z,98101.22
2023-05-25T09:44:01.937Z,98099.50
2023-05-25T09:46:57.078Z,98096.38
2023-05-25T09:49:47.493Z,98107.28
2023-05-25T09:52:36.177Z,98099.59
2023-05-25T09:55:23.093Z,98111.03
2023-05-25T09:58:11.092Z,98110.78
2023-05-25T10:00:58.373Z,98099.66
2023-05-25T10:03:59.826Z,98095.78
2023-05-25T10:06:53.169Z,98098.25
2023-05-25T10:09:41.717Z,98098.94
2023-05-25T10:12:29.914Z,98098.81
2023-05-25T10:15:17.516Z,98100.75
2023-05-25T10:18:09.296Z,98091.81
2023-05-25T10:21:03.329Z,98087.03
2023-05-25T10:23:54.316Z,98080.00
2023-05-25T10:26:50.074Z,98086.69
2023-05-25T10:29:39.497Z,98082.22
2023-05-25T10:32:28.309Z,98072.47
2023-05-25T10:35:15.837Z,98088.81
2023-05-25T10:38:04.397Z,98080.81
2023-05-25T10:40:53.006Z,98079.22
2023-05-25T10:43:41.140Z,98070.91
2023-05-25T10:46:29.238Z,98074.00
2023-05-25T10:49:26.478Z,98077.69
2023-05-25T10:52:18.792Z,98067.00
2023-05-25T10:55:06.348Z,98070.09
2023-05-25T10:58:13.702Z,98059.84
2023-05-25T11:01:12.663Z,98061.06
2023-05-25T11:04:11.666Z,98050.31
2023-05-25T11:07:01.556Z,98048.84
2023-05-25T11:09:59.413Z,98045.88
2023-05-25T11:12:46.547Z,98040.84
2023-05-25T11:15:34.813Z,98044.72
2023-05-25T11:18:21.729Z,98041.03
2023-05-25T11:21:18.781Z,98035.16
2023-05-25T11:24:13.910Z,98035.81
2023-05-25T11:27:01.459Z,98029.94
2023-05-25T11:29:51.078Z,98028.78
2023-05-25T11:32:48.410Z,98027.03
2023-05-25T11:35:37.827Z,98020.75
2023-05-25T11:38:25.417Z,98019.53
2023-05-25T11:41:16.863Z,98016.81
2023-05-25T11:44:08.733Z,98018.88
2023-05-25T11:46:57.661Z,98017.84
2023-05-25T11:49:47.110Z,98020.81
2023-05-25T11:52:34.060Z,98018.13
2023-05-25T11:55:21.406Z,98008.13
2023-05-25T11:58:08.383Z,98006.28
2023-05-25T12:00:55.428Z,98005.56
2023-05-25T12:03:43.031Z,98011.44
2023-05-25T12:06:34.007Z,98010.00
2023-05-25T12:09:22.279Z,97998.88
2023-05-25T12:12:09.216Z,97992.78
2023-05-25T12:14:57.799Z,97994.41
2023-05-25T12:17:46.763Z,97988.22
2023-05-25T12:20:33.916Z,97987.97
2023-05-25T12:23:20.988Z,97981.19
2023-05-25T12:26:13.813Z,97985.44
2023-05-25T12:29:01.482Z,97987.09
2023-05-25T12:31:48.714Z,97974.28
2023-05-25T12:34:35.793Z,97970.59
2023-05-25T12:37:22.815Z,97963.34
2023-05-25T12:40:20.897Z,97962.09
2023-05-25T12:43:07.960Z,97963.09
2023-05-25T12:45:54.948Z,97961.38
2023-05-25T12:48:41.914Z,97964.53
2023-05-25T12:51:38.301Z,97963.72
2023-05-25T12:54:45.205Z,97966.50
2023-05-25T12:57:36.229Z,97956.41
2023-05-25T13:00:25.598Z,97956.84
2023-05-25T13:03:12.560Z,97964.38
2023-05-25T13:06:02.855Z,97953.69
2023-05-25T13:08:49.806Z,97957.09
2023-05-25T13:11:36.791Z,97949.66
2023-05-25T13:14:24.979Z,97945.69
2023-05-25T13:17:11.956Z,97945.59
2023-05-25T13:19:59.018Z,97947.66
2023-05-25T13:22:47.253Z,97943.53
2023-05-25T13:25:34.188Z,97942.28
2023-05-25T13:28:21.045Z,97945.19
2023-05-25T13:31:07.907Z,97938.44
2023-05-25T13:33:54.839Z,97937.53
2023-05-25T13:36:42.028Z,97938.22
2023-05-25T13:39:28.931Z,97926.22
2023-05-25T13:42:16.288Z,97926.38
2023-05-25T13:45:03.300Z,97924.69
2023-05-25T13:47:50.442Z,97933.66
2023-05-25T13:50:37.629Z,97924.13
2023-05-25T13:53:24.561Z,97925.03
2023-05-25T13:56:11.501Z,97920.00
2023-05-25T13:58:58.559Z,97930.81
2023-05-25T14:01:45.581Z,97923.03
2023-05-25T14:04:32.545Z,97928.13
2023-05-25T14:07:19.417Z,97921.47
2023-05-25T14:10:06.739Z,97924.56
2023-05-25T14:12:53.669Z,97921.63
2023-05-25T14:15:40.706Z,97922.91
2023-05-25T14:18:27.691Z,97921.63
2023-05-25T14:21:14.653Z,97929.44
2023-05-25T14:24:01.485Z,97924.31
2023-05-25T14:26:48.358Z,97921.44
2023-05-25T14:29:35.457Z,97914.41
2023-05-25T14:32:22.336Z,97922.16
2023-05-25T14:35:09.565Z,97920.69
2023-05-25T14:37:57.671Z,97918.47
2023-05-25T14:40:44.598Z,97918.47
2023-05-25T14:43:31.764Z,97920.09
2023-05-25T14:46:19.155Z,97916.72
2023-05-25T14:49:06.092Z,97917.25
2023-05-25T14:51:53.288Z,97920.00
2023-05-25T14:54:44.826Z,97920.31
2023-05-25T14:57:31.880Z,97919.06
2023-05-25T15:00:19.025Z,97915.25
2023-05-25T15:03:06.099Z,97918.28
2023-05-25T15:05:53.093Z,97918.44
2023-05-25T15:08:40.369Z,97918.69
2023-05-25T15:11:27.263Z,97913.19
2023-05-25T15:14:14.550Z,97905.09
2023-05-25T15:17:03.383Z,97908.22
2023-05-25T15:19:50.523Z,97902.75
2023-05-25T15:22:37.432Z,97910.72
2023-05-25T15:25:35.170Z,97912.38
2023-05-25T15:28:23.408Z,97904.28
2023-05-25T15:31:10.366Z,97906.50
2023-05-25T15:33:59.037Z,97902.91
2023-05-25T15:36:46.164Z,97900.22
2023-05-25T15:39:33.036Z,97908.06
2023-05-25T15:42:21.120Z,97907.38
2023-05-25T15:45:10.218Z,97910.31
2023-05-25T15:47:57.222Z,97905.28
2023-05-25T15:50:44.190Z,97904.50
2023-05-25T15:53:31.048Z,97901.47
2023-05-25T15:56:18.503Z,97904.16
2023-05-25T15:59:05.537Z,97905.53
2023-05-25T16:01:52.533Z,97901.13
2023-05-25T16:04:39.478Z,97902.94
2023-05-25T16:07:26.560Z,97901.34
2023-05-25T16:10:14.055Z,97903.56
2023-05-25T16:13:01.098Z,97906.91
2023-05-25T16:49:38.993Z,97886.41
2023-05-25T16:52:25.925Z,97898.13
2023-05-25T16:55:14.512Z,97902.69
2023-05-25T16:58:01.419Z,97897.56
2023-05-25T17:00:48.377Z,97902.31
2023-05-25T17:03:35.671Z,97907.16
2023-05-25T17:06:22.667Z,97906.34
2023-05-25T17:09:11.786Z,97910.38
2023-05-25T17:12:01.081Z,97911.50
2023-05-25T17:14:47.935Z,97914.19
2023-05-25T17:17:34.903Z,97919.25
2023-05-25T17:20:21.935Z,97914.22
2023-05-25T17:23:09.664Z,97921.47
2023-05-25T17:25:56.562Z,97921.56
2023-05-25T17:28:43.522Z,97915.94
2023-05-25T17:31:30.448Z,97926.03
2023-05-25T17:34:17.437Z,97928.78
2023-05-25T17:37:04.489Z,97927.88
2023-05-25T17:39:51.395Z,97931.91
2023-05-25T17:42:38.296Z,97931.06
2023-05-25T17:45:25.567Z,97937.06
2023-05-25T17:48:12.828Z,97932.63
2023-05-25T17:50:59.760Z,97932.31
2023-05-25T17:53:46.882Z,97927.78
2023-05-25T17:56:33.781Z,97931.09
2023-05-25T17:59:20.713Z,97934.13
2023-05-25T18:02:08.143Z,97928.38
2023-05-25T18:04:55.411Z,97936.72
2023-05-25T18:07:42.334Z,97941.22
2023-05-25T18:10:29.170Z,97939.78
2023-05-25T18:13:16.249Z,97942.34
2023-05-25T18:16:03.103Z,97941.31
2023-05-25T18:18:50.126Z,97944.59
2023-05-25T18:21:38.487Z,97955.59
2023-05-25T18:24:25.532Z,97951.28
2023-05-25T18:27:12.484Z,97952.38
2023-05-25T18:29:59.437Z,97959.06
2023-05-25T18:32:46.411Z,97957.41
2023-05-25T18:35:33.310Z,97965.41
2023-05-25T18:38:20.176Z,97961.78
2023-05-25T18:41:07.118Z,97969.75
2023-05-25T18:43:54.293Z,97961.16
2023-05-25T18:46:43.479Z,97976.00
2023-05-25T18:49:33.632Z,97969.41
2023-05-25T18:52:20.565Z,97971.81
2023-05-25T18:55:08.041Z,97974.34
2023-05-25T18:57:56.637Z,97978.72
2023-05-25T19:00:43.486Z,97986.09
2023-05-25T19:03:30.640Z,97983.94
2023-05-25T19:06:17.701Z,97989.97
2023-05-25T19:09:04.585Z,97997.41
2023-05-25T19:11:51.465Z,97996.69
2023-05-25T19:14:38.337Z,98000.09
2023-05-25T19:17:25.415Z,97998.75
2023-05-25T19:20:12.459Z,98000.47
2023-05-25T19:22:59.952Z,97998.06
2023-05-25T19:25:47.187Z,98002.28
2023-05-25T19:28:34.600Z,98008.69
2023-05-25T19:31:23.468Z,98012.66
2023-05-25T19:34:10.586Z,98020.88
2023-05-25T19:37:10.247Z,98024.00
2023-05-25T19:39:58.315Z,98019.56
2023-05-25T19:42:45.295Z,98021.00
2023-05-25T19:45:32.231Z,98027.38
2023-05-25T19:48:20.299Z,98027.59
2023-05-25T19:51:07.344Z,98034.09
2023-05-25T19:53:56.119Z,98030.72
2023-05-25T19:56:44.161Z,98030.97
2023-05-25T19:59:31.508Z,98036.50
2023-05-25T20:02:18.509Z,98035.88
2023-05-25T20:05:05.988Z,98043.47
2023-05-25T20:07:53.178Z,98046.22
2023-05-25T20:10:40.121Z,98046.13
2023-05-25T20:13:27.012Z,98048.41
2023-05-25T20:16:14.481Z,98056.94
2023-05-25T20:19:02.123Z,98054.16
2023-05-25T20:21:48.964Z,98051.53
2023-05-25T20:24:37.514Z,98052.88
2023-05-25T20:27:25.132Z,98054.06
2023-05-25T20:30:13.752Z,98060.94
2023-05-25T20:33:02.030Z,98063.81
2023-05-25T20:35:49.144Z,98067.78
2023-05-25T20:38:36.045Z,98063.19
2023-05-25T20:41:22.883Z,98066.34
2023-05-25T20:44:10.179Z,98074.16
2023-05-25T20:46:57.089Z,98072.34
2023-05-25T20:49:44.134Z,98080.53
2023-05-25T20:52:30.983Z,98087.22
2023-05-25T20:55:18.047Z,98084.91
2023-05-25T20:58:05.229Z,98078.44
2023-05-25T21:00:52.081Z,98079.00
2023-05-25T21:03:39.925Z,98083.72
2023-05-25T21:06:26.952Z,98086.72
2023-05-25T21:09:13.844Z,98087.41
2023-05-25T21:12:01.955Z,98086.69
2023-05-25T21:14:48.787Z,98088.47
2023-05-25T21:17:35.715Z,98080.53
2023-05-25T21:20:22.711Z,98089.56
2023-05-25T21:23:09.827Z,98090.13
2023-05-25T21:25:56.865Z,98093.50
2023-05-25T21:28:43.788Z,98093.59
2023-05-25T21:31:30.754Z,98089.00
2023-05-25T21:34:17.698Z,98099.06
2023-05-25T21:37:04.618Z,98092.94
2023-05-25T21:39:51.479Z,98085.97
2023-05-25T21:42:38.302Z,98093.78
2023-05-25T21:45:25.245Z,98096.06
2023-05-25T21:48:12.214Z,98094.72
2023-05-25T21:50:59.260Z,98093.16
2023-05-25T21:53:46.096Z,98100.34
2023-05-25T21:56:32.983Z,98098.16
2023-05-25T21:59:19.943Z,98093.81
2023-05-25T22:02:07.008Z,98101.75
2023-05-25T22:04:53.885Z,98105.13
2023-05-25T22:07:41.764Z,98104.59
2023-05-25T22:10:28.899Z,98107.28
2023-05-25T22:13:15.808Z,98102.50
2023-05-25T22:16:02.644Z,98113.56
2023-05-25T22:18:49.535Z,98111.16
2023-05-25T22:21:37.231Z,98107.78
2023-05-25T22:24:24.118Z,98109.31
2023-05-25T22:27:10.950Z,98110.94
2023-05-25T22:29:57.896Z,98112.56
2023-05-25T22:32:44.815Z,98118.13
2023-05-25T22:35:31.759Z,98115.06
2023-05-25T22:38:18.629Z,98112.94
2023-05-25T22:41:05.518Z,98117.19
2023-05-25T22:43:52.376Z,98123.16
2023-05-25T22:46:39.254Z,98113.88
2023-05-25T22:49:26.468Z,98121.44
2023-05-25T22:52:13.499Z,98120.13
2023-05-25T22:55:00.957Z,98119.84
2023-05-25T22:57:47.853Z,98121.59
2023-05-25T23:00:34.721Z,98126.19
2023-05-25T23:03:21.798Z,98130.88
2023-05-25T23:06:08.747Z,98127.41
2023-05-25T23:08:55.674Z,98130.00
2023-05-25T23:11:42.894Z,98120.28
2023-05-25T23:14:30.501Z,98126.78
2023-05-25T23:17:17.504Z,98126.81
2023-05-25T23:20:06.965Z,98120.88
2023-05-25T23:22:53.957Z,98118.41
2023-05-25T23:25:41.075Z,98122.91
2023-05-25T23:28:28.337Z,98120.31
2023-05-25T23:31:15.543Z,98122.94
2023-05-25T23:34:02.441Z,98119.88
2023-05-25T23:36:49.351Z,98119.59
2023-05-25T23:39:36.365Z,98120.31
2023-05-25T23:42:23.290Z,98116.84
2023-05-25T23:45:10.502Z,98127.28
2023-05-25T23:47:57.555Z,98122.50
2023-05-25T23:50:44.505Z,98123.81
2023-05-25T23:53:31.446Z,98126.00
2023-05-25T23:56:18.360Z,98137.16
2023-05-25T23:59:05.364Z,98131.19
